sensor_id;sensor_type;location;lat;lon;timestamp;P1;durP1;ratioP1;P2;durP2;ratioP2
77326;SDS011;66399;52.322;20.980;2023-03-31T00:02:33;7.80;;;4.40;;
77326;SDS011;66399;52.322;20.980;2023-03-31T00:06:40;7.70;;;4.30;;
77326;SDS011;66399;52.322;20.980;2023-03-31T00:10:45;7.80;;;4.10;;
77326;SDS011;66399;52.322;20.980;2023-03-31T00:14:51;8.10;;;4.10;;
77326;SDS011;66399;52.322;20.980;2023-03-31T00:18:56;6.20;;;3.70;;
77326;SDS011;66399;52.322;20.980;2023-03-31T00:23:02;7.20;;;4.50;;
77326;SDS011;66399;52.322;20.980;2023-03-31T00:27:14;6.30;;;3.80;;
77326;SDS011;66399;52.322;20.980;2023-03-31T00:31:19;7.70;;;4.20;;
77326;SDS011;66399;52.322;20.980;2023-03-31T00:35:25;9.50;;;4.40;;
77326;SDS011;66399;52.322;20.980;2023-03-31T00:39:30;7.40;;;4.70;;
77326;SDS011;66399;52.322;20.980;2023-03-31T00:43:38;8.10;;;4.30;;
77326;SDS011;66399;52.322;20.980;2023-03-31T00:47:44;7.90;;;3.80;;
77326;SDS011;66399;52.322;20.980;2023-03-31T00:51:51;9.70;;;3.80;;
77326;SDS011;66399;52.322;20.980;2023-03-31T00:55:58;6.20;;;4.10;;
77326;SDS011;66399;52.322;20.980;2023-03-31T01:00:09;9.40;;;4.20;;
77326;SDS011;66399;52.322;20.980;2023-03-31T01:04:17;8.80;;;4.80;;
77326;SDS011;66399;52.322;20.980;2023-03-31T01:08:26;7.50;;;4.30;;
77326;SDS011;66399;52.322;20.980;2023-03-31T01:17:14;6.80;;;4.30;;
77326;SDS011;66399;52.322;20.980;2023-03-31T01:21:32;7.60;;;4.30;;
77326;SDS011;66399;52.322;20.980;2023-03-31T01:30:12;7.00;;;3.70;;
77326;SDS011;66399;52.322;20.980;2023-03-31T01:38:51;6.70;;;3.60;;
77326;SDS011;66399;52.322;20.980;2023-03-31T01:43:04;7.20;;;3.90;;
77326;SDS011;66399;52.322;20.980;2023-03-31T01:47:13;6.90;;;3.70;;
77326;SDS011;66399;52.322;20.980;2023-03-31T01:51:24;6.30;;;3.70;;
77326;SDS011;66399;52.322;20.980;2023-03-31T01:55:32;6.10;;;3.90;;
77326;SDS011;66399;52.322;20.980;2023-03-31T01:59:39;5.30;;;3.70;;
77326;SDS011;66399;52.322;20.980;2023-03-31T02:03:47;6.70;;;4.50;;
77326;SDS011;66399;52.322;20.980;2023-03-31T02:07:55;5.50;;;3.20;;
77326;SDS011;66399;52.322;20.980;2023-03-31T02:12:03;6.50;;;4.10;;
77326;SDS011;66399;52.322;20.980;2023-03-31T02:16:09;5.90;;;4.00;;
77326;SDS011;66399;52.322;20.980;2023-03-31T02:20:17;7.00;;;3.90;;
77326;SDS011;66399;52.322;20.980;2023-03-31T02:24:24;6.00;;;3.90;;
77326;SDS011;66399;52.322;20.980;2023-03-31T02:28:30;5.60;;;3.50;;
77326;SDS011;66399;52.322;20.980;2023-03-31T02:36:40;5.50;;;3.30;;
77326;SDS011;66399;52.322;20.980;2023-03-31T02:40:45;6.30;;;3.80;;
77326;SDS011;66399;52.322;20.980;2023-03-31T02:44:51;7.90;;;4.10;;
77326;SDS011;66399;52.322;20.980;2023-03-31T02:53:00;6.50;;;4.20;;
77326;SDS011;66399;52.322;20.980;2023-03-31T02:57:15;6.70;;;3.50;;
77326;SDS011;66399;52.322;20.980;2023-03-31T03:01:30;7.20;;;3.20;;
77326;SDS011;66399;52.322;20.980;2023-03-31T03:05:42;7.40;;;3.90;;
77326;SDS011;66399;52.322;20.980;2023-03-31T03:09:56;6.10;;;3.40;;
77326;SDS011;66399;52.322;20.980;2023-03-31T03:14:04;6.40;;;4.10;;
77326;SDS011;66399;52.322;20.980;2023-03-31T03:18:11;4.80;;;3.20;;
77326;SDS011;66399;52.322;20.980;2023-03-31T03:22:17;7.00;;;4.40;;
77326;SDS011;66399;52.322;20.980;2023-03-31T03:26:22;7.40;;;3.30;;
77326;SDS011;66399;52.322;20.980;2023-03-31T03:30:31;6.00;;;3.90;;
77326;SDS011;66399;52.322;20.980;2023-03-31T03:34:36;5.90;;;3.30;;
77326;SDS011;66399;52.322;20.980;2023-03-31T03:38:42;6.70;;;3.80;;
77326;SDS011;66399;52.322;20.980;2023-03-31T03:42:47;8.80;;;4.90;;
77326;SDS011;66399;52.322;20.980;2023-03-31T03:50:56;8.50;;;4.00;;
77326;SDS011;66399;52.322;20.980;2023-03-31T03:55:03;6.20;;;3.90;;
77326;SDS011;66399;52.322;20.980;2023-03-31T03:59:09;7.30;;;4.30;;
77326;SDS011;66399;52.322;20.980;2023-03-31T04:03:14;6.10;;;3.80;;
77326;SDS011;66399;52.322;20.980;2023-03-31T04:07:20;7.90;;;4.30;;
77326;SDS011;66399;52.322;20.980;2023-03-31T04:11:25;7.30;;;3.70;;
77326;SDS011;66399;52.322;20.980;2023-03-31T04:15:31;9.10;;;4.20;;
77326;SDS011;66399;52.322;20.980;2023-03-31T04:19:36;6.50;;;3.70;;
77326;SDS011;66399;52.322;20.980;2023-03-31T04:23:41;6.10;;;3.40;;
77326;SDS011;66399;52.322;20.980;2023-03-31T04:27:50;7.80;;;3.80;;
77326;SDS011;66399;52.322;20.980;2023-03-31T04:31:57;8.00;;;4.50;;
77326;SDS011;66399;52.322;20.980;2023-03-31T04:36:03;7.50;;;3.90;;
77326;SDS011;66399;52.322;20.980;2023-03-31T04:40:10;6.70;;;4.20;;
77326;SDS011;66399;52.322;20.980;2023-03-31T04:44:16;7.50;;;3.70;;
77326;SDS011;66399;52.322;20.980;2023-03-31T04:48:21;8.10;;;4.30;;
77326;SDS011;66399;52.322;20.980;2023-03-31T04:52:26;7.50;;;3.90;;
77326;SDS011;66399;52.322;20.980;2023-03-31T04:56:31;8.70;;;4.00;;
77326;SDS011;66399;52.322;20.980;2023-03-31T05:00:37;6.50;;;4.10;;
77326;SDS011;66399;52.322;20.980;2023-03-31T05:04:42;6.50;;;4.30;;
77326;SDS011;66399;52.322;20.980;2023-03-31T05:08:47;6.00;;;3.90;;
77326;SDS011;66399;52.322;20.980;2023-03-31T05:12:52;7.80;;;4.00;;
77326;SDS011;66399;52.322;20.980;2023-03-31T05:16:58;9.80;;;4.50;;
77326;SDS011;66399;52.322;20.980;2023-03-31T05:21:10;9.90;;;4.80;;
77326;SDS011;66399;52.322;20.980;2023-03-31T05:25:15;11.70;;;4.70;;
77326;SDS011;66399;52.322;20.980;2023-03-31T05:33:34;11.80;;;5.30;;
77326;SDS011;66399;52.322;20.980;2023-03-31T05:37:43;11.60;;;6.00;;
77326;SDS011;66399;52.322;20.980;2023-03-31T05:50:56;8.40;;;4.70;;
77326;SDS011;66399;52.322;20.980;2023-03-31T05:55:02;8.40;;;4.70;;
77326;SDS011;66399;52.322;20.980;2023-03-31T05:59:07;9.10;;;5.10;;
77326;SDS011;66399;52.322;20.980;2023-03-31T06:03:16;8.60;;;4.70;;
77326;SDS011;66399;52.322;20.980;2023-03-31T06:07:21;7.70;;;4.40;;
77326;SDS011;66399;52.322;20.980;2023-03-31T06:11:27;10.20;;;4.60;;
77326;SDS011;66399;52.322;20.980;2023-03-31T06:33:17;9.10;;;5.90;;
77326;SDS011;66399;52.322;20.980;2023-03-31T06:45:41;8.60;;;5.00;;
77326;SDS011;66399;52.322;20.980;2023-03-31T06:49:46;10.90;;;6.10;;
77326;SDS011;66399;52.322;20.980;2023-03-31T06:54:01;10.00;;;6.10;;
77326;SDS011;66399;52.322;20.980;2023-03-31T06:58:06;9.00;;;6.20;;
77326;SDS011;66399;52.322;20.980;2023-03-31T07:02:12;9.60;;;5.20;;
77326;SDS011;66399;52.322;20.980;2023-03-31T07:06:21;8.30;;;5.60;;
77326;SDS011;66399;52.322;20.980;2023-03-31T07:10:27;8.90;;;5.90;;
77326;SDS011;66399;52.322;20.980;2023-03-31T07:14:33;9.20;;;5.90;;
77326;SDS011;66399;52.322;20.980;2023-03-31T07:18:44;8.60;;;5.80;;
77326;SDS011;66399;52.322;20.980;2023-03-31T07:22:50;11.70;;;6.00;;
77326;SDS011;66399;52.322;20.980;2023-03-31T07:26:55;12.30;;;6.80;;
77326;SDS011;66399;52.322;20.980;2023-03-31T07:39:45;8.90;;;5.70;;
77326;SDS011;66399;52.322;20.980;2023-03-31T07:43:50;11.10;;;7.50;;
77326;SDS011;66399;52.322;20.980;2023-03-31T07:52:09;8.90;;;5.50;;
77326;SDS011;66399;52.322;20.980;2023-03-31T07:56:14;9.10;;;6.20;;
77326;SDS011;66399;52.322;20.980;2023-03-31T08:00:26;12.00;;;6.50;;
77326;SDS011;66399;52.322;20.980;2023-03-31T08:04:32;10.40;;;6.60;;
77326;SDS011;66399;52.322;20.980;2023-03-31T08:08:37;9.10;;;5.90;;
77326;SDS011;66399;52.322;20.980;2023-03-31T08:12:52;8.80;;;5.30;;
77326;SDS011;66399;52.322;20.980;2023-03-31T08:16:58;8.10;;;5.00;;
77326;SDS011;66399;52.322;20.980;2023-03-31T08:21:17;8.10;;;5.10;;
77326;SDS011;66399;52.322;20.980;2023-03-31T08:25:25;9.00;;;4.80;;
77326;SDS011;66399;52.322;20.980;2023-03-31T08:33:50;7.60;;;4.70;;
77326;SDS011;66399;52.322;20.980;2023-03-31T08:37:55;11.20;;;5.00;;
77326;SDS011;66399;52.322;20.980;2023-03-31T08:42:08;8.80;;;5.00;;
77326;SDS011;66399;52.322;20.980;2023-03-31T08:46:18;8.10;;;5.00;;
77326;SDS011;66399;52.322;20.980;2023-03-31T08:55:39;11.30;;;6.20;;
77326;SDS011;66399;52.322;20.980;2023-03-31T08:59:47;8.50;;;5.40;;
77326;SDS011;66399;52.322;20.980;2023-03-31T09:04:12;8.70;;;5.70;;
77326;SDS011;66399;52.322;20.980;2023-03-31T09:08:21;9.80;;;5.30;;
77326;SDS011;66399;52.322;20.980;2023-03-31T09:12:33;12.80;;;6.50;;
77326;SDS011;66399;52.322;20.980;2023-03-31T09:16:41;11.80;;;5.90;;
77326;SDS011;66399;52.322;20.980;2023-03-31T09:39:11;10.80;;;6.00;;
77326;SDS011;66399;52.322;20.980;2023-03-31T09:43:17;9.10;;;5.30;;
77326;SDS011;66399;52.322;20.980;2023-03-31T09:47:30;8.60;;;5.90;;
77326;SDS011;66399;52.322;20.980;2023-03-31T09:51:36;8.10;;;5.40;;
77326;SDS011;66399;52.322;20.980;2023-03-31T10:05:29;6.80;;;4.40;;
77326;SDS011;66399;52.322;20.980;2023-03-31T10:09:35;7.90;;;4.20;;
77326;SDS011;66399;52.322;20.980;2023-03-31T10:13:44;7.00;;;3.50;;
77326;SDS011;66399;52.322;20.980;2023-03-31T10:17:54;7.30;;;3.80;;
77326;SDS011;66399;52.322;20.980;2023-03-31T10:22:02;6.00;;;3.50;;
77326;SDS011;66399;52.322;20.980;2023-03-31T10:26:21;6.60;;;3.00;;
77326;SDS011;66399;52.322;20.980;2023-03-31T10:30:28;7.80;;;3.40;;
77326;SDS011;66399;52.322;20.980;2023-03-31T10:43:23;8.00;;;3.60;;
77326;SDS011;66399;52.322;20.980;2023-03-31T10:47:29;6.10;;;3.10;;
77326;SDS011;66399;52.322;20.980;2023-03-31T10:51:37;6.60;;;3.30;;
77326;SDS011;66399;52.322;20.980;2023-03-31T11:00:19;5.50;;;2.70;;
77326;SDS011;66399;52.322;20.980;2023-03-31T11:13:21;7.80;;;3.30;;
77326;SDS011;66399;52.322;20.980;2023-03-31T11:17:29;7.60;;;2.80;;
77326;SDS011;66399;52.322;20.980;2023-03-31T11:21:45;6.90;;;3.40;;
77326;SDS011;66399;52.322;20.980;2023-03-31T11:30:16;5.40;;;3.20;;
77326;SDS011;66399;52.322;20.980;2023-03-31T11:34:40;7.00;;;3.80;;
77326;SDS011;66399;52.322;20.980;2023-03-31T11:38:52;6.50;;;3.30;;
77326;SDS011;66399;52.322;20.980;2023-03-31T11:43:08;7.80;;;3.70;;
77326;SDS011;66399;52.322;20.980;2023-03-31T11:52:13;6.20;;;3.50;;
77326;SDS011;66399;52.322;20.980;2023-03-31T12:09:45;5.90;;;2.70;;
77326;SDS011;66399;52.322;20.980;2023-03-31T12:18:40;5.80;;;3.30;;
77326;SDS011;66399;52.322;20.980;2023-03-31T12:22:46;5.70;;;2.90;;
77326;SDS011;66399;52.322;20.980;2023-03-31T12:26:58;6.50;;;3.10;;
77326;SDS011;66399;52.322;20.980;2023-03-31T12:31:07;6.00;;;3.20;;
77326;SDS011;66399;52.322;20.980;2023-03-31T12:35:16;7.00;;;3.10;;
77326;SDS011;66399;52.322;20.980;2023-03-31T12:39:26;6.00;;;2.30;;
77326;SDS011;66399;52.322;20.980;2023-03-31T12:48:28;5.60;;;2.30;;
77326;SDS011;66399;52.322;20.980;2023-03-31T13:11:35;7.00;;;2.80;;
77326;SDS011;66399;52.322;20.980;2023-03-31T13:29:24;5.90;;;2.30;;
77326;SDS011;66399;52.322;20.980;2023-03-31T13:33:31;6.10;;;2.80;;
77326;SDS011;66399;52.322;20.980;2023-03-31T13:46:00;6.40;;;2.60;;
77326;SDS011;66399;52.322;20.980;2023-03-31T14:03:29;7.60;;;2.80;;
77326;SDS011;66399;52.322;20.980;2023-03-31T14:07:58;5.30;;;2.60;;
77326;SDS011;66399;52.322;20.980;2023-03-31T14:12:20;7.00;;;3.10;;
77326;SDS011;66399;52.322;20.980;2023-03-31T14:16:25;8.10;;;2.90;;
77326;SDS011;66399;52.322;20.980;2023-03-31T14:24:53;7.80;;;3.40;;
77326;SDS011;66399;52.322;20.980;2023-03-31T14:29:20;5.20;;;2.40;;
77326;SDS011;66399;52.322;20.980;2023-03-31T14:33:29;6.00;;;2.80;;
77326;SDS011;66399;52.322;20.980;2023-03-31T14:37:45;5.70;;;2.40;;
77326;SDS011;66399;52.322;20.980;2023-03-31T14:55:13;10.40;;;2.80;;
77326;SDS011;66399;52.322;20.980;2023-03-31T14:59:20;6.60;;;2.50;;
77326;SDS011;66399;52.322;20.980;2023-03-31T15:08:15;6.90;;;3.40;;
77326;SDS011;66399;52.322;20.980;2023-03-31T15:20:59;7.60;;;2.90;;
77326;SDS011;66399;52.322;20.980;2023-03-31T15:25:25;6.20;;;3.00;;
77326;SDS011;66399;52.322;20.980;2023-03-31T15:29:33;6.90;;;2.60;;
77326;SDS011;66399;52.322;20.980;2023-03-31T15:33:56;6.80;;;2.60;;
77326;SDS011;66399;52.322;20.980;2023-03-31T15:38:03;5.80;;;2.70;;
77326;SDS011;66399;52.322;20.980;2023-03-31T15:42:15;4.80;;;2.40;;
77326;SDS011;66399;52.322;20.980;2023-03-31T15:46:23;5.30;;;2.20;;
77326;SDS011;66399;52.322;20.980;2023-03-31T15:50:30;3.80;;;2.10;;
77326;SDS011;66399;52.322;20.980;2023-03-31T15:54:40;4.90;;;2.20;;
77326;SDS011;66399;52.322;20.980;2023-03-31T15:58:53;5.30;;;2.30;;
77326;SDS011;66399;52.322;20.980;2023-03-31T16:03:17;3.40;;;2.00;;
77326;SDS011;66399;52.322;20.980;2023-03-31T16:07:39;3.00;;;1.80;;
77326;SDS011;66399;52.322;20.980;2023-03-31T16:11:47;3.20;;;1.70;;
77326;SDS011;66399;52.322;20.980;2023-03-31T16:24:40;3.60;;;1.70;;
77326;SDS011;66399;52.322;20.980;2023-03-31T16:28:52;2.80;;;1.50;;
77326;SDS011;66399;52.322;20.980;2023-03-31T16:37:21;3.20;;;1.80;;
77326;SDS011;66399;52.322;20.980;2023-03-31T16:41:27;3.10;;;1.60;;
77326;SDS011;66399;52.322;20.980;2023-03-31T16:45:34;3.00;;;1.60;;
77326;SDS011;66399;52.322;20.980;2023-03-31T16:49:39;4.60;;;2.00;;
77326;SDS011;66399;52.322;20.980;2023-03-31T16:53:45;5.00;;;1.80;;
77326;SDS011;66399;52.322;20.980;2023-03-31T16:57:51;5.50;;;2.60;;
77326;SDS011;66399;52.322;20.980;2023-03-31T17:01:57;4.40;;;1.60;;
77326;SDS011;66399;52.322;20.980;2023-03-31T17:06:05;3.90;;;2.00;;
77326;SDS011;66399;52.322;20.980;2023-03-31T17:10:11;3.90;;;1.60;;
77326;SDS011;66399;52.322;20.980;2023-03-31T17:14:16;3.40;;;1.60;;
77326;SDS011;66399;52.322;20.980;2023-03-31T17:18:22;2.90;;;1.60;;
77326;SDS011;66399;52.322;20.980;2023-03-31T17:22:27;2.40;;;1.40;;
77326;SDS011;66399;52.322;20.980;2023-03-31T17:26:33;3.10;;;1.40;;
77326;SDS011;66399;52.322;20.980;2023-03-31T17:30:39;3.00;;;1.60;;
77326;SDS011;66399;52.322;20.980;2023-03-31T17:34:47;4.80;;;1.80;;
77326;SDS011;66399;52.322;20.980;2023-03-31T17:38:53;3.70;;;1.80;;
77326;SDS011;66399;52.322;20.980;2023-03-31T17:42:58;5.70;;;2.10;;
77326;SDS011;66399;52.322;20.980;2023-03-31T17:47:04;4.20;;;1.70;;
77326;SDS011;66399;52.322;20.980;2023-03-31T17:51:11;2.70;;;1.40;;
77326;SDS011;66399;52.322;20.980;2023-03-31T17:55:18;5.00;;;2.00;;
77326;SDS011;66399;52.322;20.980;2023-03-31T17:59:23;4.40;;;2.00;;
77326;SDS011;66399;52.322;20.980;2023-03-31T18:03:28;3.70;;;2.10;;
77326;SDS011;66399;52.322;20.980;2023-03-31T18:07:34;5.90;;;2.60;;
77326;SDS011;66399;52.322;20.980;2023-03-31T18:11:39;5.70;;;2.60;;
77326;SDS011;66399;52.322;20.980;2023-03-31T18:15:48;6.20;;;3.00;;
77326;SDS011;66399;52.322;20.980;2023-03-31T18:19:59;6.40;;;3.20;;
77326;SDS011;66399;52.322;20.980;2023-03-31T18:24:04;5.20;;;2.90;;
77326;SDS011;66399;52.322;20.980;2023-03-31T18:28:10;6.70;;;2.60;;
77326;SDS011;66399;52.322;20.980;2023-03-31T18:32:15;7.30;;;2.90;;
77326;SDS011;66399;52.322;20.980;2023-03-31T18:36:21;6.20;;;2.70;;
77326;SDS011;66399;52.322;20.980;2023-03-31T18:40:27;7.90;;;3.10;;
77326;SDS011;66399;52.322;20.980;2023-03-31T18:44:33;7.40;;;2.80;;
77326;SDS011;66399;52.322;20.980;2023-03-31T18:48:39;5.30;;;3.50;;
77326;SDS011;66399;52.322;20.980;2023-03-31T18:52:45;6.90;;;4.00;;
77326;SDS011;66399;52.322;20.980;2023-03-31T18:56:51;6.60;;;4.80;;
77326;SDS011;66399;52.322;20.980;2023-03-31T19:00:57;6.80;;;4.30;;
77326;SDS011;66399;52.322;20.980;2023-03-31T19:05:04;6.30;;;4.30;;
77326;SDS011;66399;52.322;20.980;2023-03-31T19:09:10;6.70;;;4.00;;
77326;SDS011;66399;52.322;20.980;2023-03-31T19:13:15;5.90;;;3.10;;
77326;SDS011;66399;52.322;20.980;2023-03-31T19:17:20;7.80;;;3.80;;
77326;SDS011;66399;52.322;20.980;2023-03-31T19:21:26;6.00;;;3.40;;
77326;SDS011;66399;52.322;20.980;2023-03-31T19:25:35;12.00;;;5.80;;
77326;SDS011;66399;52.322;20.980;2023-03-31T19:29:40;15.50;;;6.70;;
77326;SDS011;66399;52.322;20.980;2023-03-31T19:33:45;13.00;;;6.80;;
77326;SDS011;66399;52.322;20.980;2023-03-31T19:37:51;14.50;;;6.10;;
77326;SDS011;66399;52.322;20.980;2023-03-31T19:41:57;13.50;;;6.40;;
77326;SDS011;66399;52.322;20.980;2023-03-31T19:46:03;11.50;;;5.70;;
77326;SDS011;66399;52.322;20.980;2023-03-31T19:50:09;10.80;;;5.30;;
77326;SDS011;66399;52.322;20.980;2023-03-31T19:54:17;8.20;;;4.20;;
77326;SDS011;66399;52.322;20.980;2023-03-31T19:58:28;8.00;;;3.90;;
77326;SDS011;66399;52.322;20.980;2023-03-31T20:02:34;8.80;;;3.30;;
77326;SDS011;66399;52.322;20.980;2023-03-31T20:06:40;6.20;;;3.40;;
77326;SDS011;66399;52.322;20.980;2023-03-31T20:10:45;8.40;;;3.60;;
77326;SDS011;66399;52.322;20.980;2023-03-31T20:14:50;10.00;;;3.70;;
77326;SDS011;66399;52.322;20.980;2023-03-31T20:18:56;6.50;;;3.80;;
77326;SDS011;66399;52.322;20.980;2023-03-31T20:23:02;8.90;;;3.80;;
77326;SDS011;66399;52.322;20.980;2023-03-31T20:27:07;7.30;;;3.40;;
77326;SDS011;66399;52.322;20.980;2023-03-31T20:35:16;5.10;;;2.60;;
77326;SDS011;66399;52.322;20.980;2023-03-31T20:39:21;5.20;;;3.30;;
77326;SDS011;66399;52.322;20.980;2023-03-31T20:47:30;6.70;;;3.10;;
77326;SDS011;66399;52.322;20.980;2023-03-31T20:51:37;7.00;;;3.10;;
77326;SDS011;66399;52.322;20.980;2023-03-31T20:55:43;9.30;;;3.30;;
77326;SDS011;66399;52.322;20.980;2023-03-31T20:59:49;6.50;;;3.50;;
77326;SDS011;66399;52.322;20.980;2023-03-31T21:03:54;6.20;;;3.00;;
77326;SDS011;66399;52.322;20.980;2023-03-31T21:08:04;6.80;;;4.00;;
77326;SDS011;66399;52.322;20.980;2023-03-31T21:12:09;10.40;;;4.40;;
77326;SDS011;66399;52.322;20.980;2023-03-31T21:16:15;9.80;;;4.10;;
77326;SDS011;66399;52.322;20.980;2023-03-31T21:20:20;8.80;;;4.30;;
77326;SDS011;66399;52.322;20.980;2023-03-31T21:28:30;10.30;;;4.60;;
77326;SDS011;66399;52.322;20.980;2023-03-31T21:32:35;7.80;;;4.40;;
77326;SDS011;66399;52.322;20.980;2023-03-31T21:36:41;7.70;;;4.00;;
77326;SDS011;66399;52.322;20.980;2023-03-31T21:40:46;7.40;;;4.10;;
77326;SDS011;66399;52.322;20.980;2023-03-31T21:44:51;9.20;;;4.40;;
77326;SDS011;66399;52.322;20.980;2023-03-31T21:49:01;9.80;;;4.60;;
77326;SDS011;66399;52.322;20.980;2023-03-31T21:53:07;8.10;;;4.40;;
77326;SDS011;66399;52.322;20.980;2023-03-31T21:57:12;10.10;;;4.40;;
77326;SDS011;66399;52.322;20.980;2023-03-31T22:05:22;7.20;;;4.20;;
77326;SDS011;66399;52.322;20.980;2023-03-31T22:13:31;8.20;;;3.90;;
77326;SDS011;66399;52.322;20.980;2023-03-31T22:21:40;8.30;;;4.20;;
77326;SDS011;66399;52.322;20.980;2023-03-31T22:25:46;7.60;;;3.50;;
77326;SDS011;66399;52.322;20.980;2023-03-31T22:33:55;7.20;;;4.10;;
77326;SDS011;66399;52.322;20.980;2023-03-31T22:42:06;7.10;;;4.60;;
77326;SDS011;66399;52.322;20.980;2023-03-31T22:46:11;6.90;;;4.50;;
77326;SDS011;66399;52.322;20.980;2023-03-31T22:50:17;9.10;;;4.30;;
77326;SDS011;66399;52.322;20.980;2023-03-31T22:54:22;9.10;;;4.40;;
77326;SDS011;66399;52.322;20.980;2023-03-31T22:58:27;8.10;;;4.70;;
77326;SDS011;66399;52.322;20.980;2023-03-31T23:06:36;9.20;;;4.30;;
77326;SDS011;66399;52.322;20.980;2023-03-31T23:10:42;10.30;;;5.10;;
77326;SDS011;66399;52.322;20.980;2023-03-31T23:18:51;9.00;;;4.80;;
77326;SDS011;66399;52.322;20.980;2023-03-31T23:22:57;7.50;;;4.30;;
77326;SDS011;66399;52.322;20.980;2023-03-31T23:27:02;8.00;;;4.30;;
77326;SDS011;66399;52.322;20.980;2023-03-31T23:35:11;9.50;;;4.20;;
77326;SDS011;66399;52.322;20.980;2023-03-31T23:39:16;8.60;;;4.90;;
77326;SDS011;66399;52.322;20.980;2023-03-31T23:43:21;8.80;;;4.90;;
77326;SDS011;66399;52.322;20.980;2023-03-31T23:47:28;8.30;;;4.80;;
77326;SDS011;66399;52.322;20.980;2023-03-31T23:51:33;8.80;;;4.70;;
77326;SDS011;66399;52.322;20.980;2023-03-31T23:59:42;8.60;;;4.40;;
